Time;durP1;ratioP1;P1;durP2;ratioP2;P2;SDS_P1;SDS_P2;PMS_P1;PMS_P2;Temp;Humidity;BMP_temperature;BMP_pressure;BME280_temperature;BME280_humidity;BME280_pressure;Samples;Min_cycle;Max_cycle;Signal;HPM_P1;HPM_P2
2021/09/24 00:00:23;;;;;;;5.90;5.30;;;16.50;76.10;;;;;;5013823;28;20307;-87
2021/09/24 00:02:49;;;;;;;5.87;5.10;;;16.60;75.90;;;;;;5013139;28;20241;-87
2021/09/24 00:05:15;;;;;;;5.70;5.25;;;16.60;75.70;;;;;;5013833;28;20284;-87
2021/09/24 00:07:41;;;;;;;6.13;5.63;;;16.70;75.60;;;;;;4990307;28;20290;-87
2021/09/24 00:10:09;;;;;;;7.07;5.75;;;16.70;75.30;;;;;;5015127;28;20247;-87
2021/09/24 00:12:35;;;;;;;5.82;5.43;;;16.80;75.30;;;;;;5011860;28;20215;-87
2021/09/24 00:15:02;;;;;;;6.07;5.55;;;16.80;74.70;;;;;;5016374;28;20613;-87
2021/09/24 00:17:28;;;;;;;5.97;5.47;;;16.70;74.50;;;;;;5018118;28;20699;-86
2021/09/24 00:19:54;;;;;;;6.00;5.50;;;16.70;75.00;;;;;;5010301;28;20217;-87
2021/09/24 00:22:20;;;;;;;6.30;5.80;;;16.70;75.10;;;;;;5007204;28;20203;-87
2021/09/24 00:24:46;;;;;;;5.70;5.30;;;16.80;74.80;;;;;;5015145;28;20188;-87
2021/09/24 00:27:12;;;;;;;6.30;5.80;;;16.80;74.60;;;;;;5005954;28;20218;-87
2021/09/24 00:29:37;;;;;;;5.97;5.38;;;16.80;74.90;;;;;;5009971;28;20293;-87
2021/09/24 00:32:04;;;;;;;6.50;6.00;;;16.70;75.20;;;;;;5013956;28;20220;-87
2021/09/24 00:34:30;;;;;;;6.28;5.72;;;16.60;75.10;;;;;;5013035;28;20192;-87
2021/09/24 00:36:56;;;;;;;6.80;6.20;;;16.70;74.90;;;;;;5012940;28;20278;-87
2021/09/24 00:39:21;;;;;;;6.73;6.23;;;16.80;74.90;;;;;;5013309;28;20228;-87
2021/09/24 00:41:47;;;;;;;6.68;6.07;;;16.70;75.10;;;;;;5013542;28;20241;-87
2021/09/24 00:44:13;;;;;;;7.43;6.35;;;16.50;75.70;;;;;;5011874;28;20657;-87
2021/09/24 00:46:38;;;;;;;6.93;6.32;;;16.60;75.20;;;;;;5010669;28;20202;-87
2021/09/24 00:49:04;;;;;;;6.88;5.80;;;16.60;75.00;;;;;;5010959;28;20863;-87
2021/09/24 00:51:30;;;;;;;6.75;6.13;;;16.60;74.70;;;;;;5012304;28;20228;-87
2021/09/24 00:53:56;;;;;;;6.07;5.67;;;16.60;74.70;;;;;;5009264;28;20585;-87
2021/09/24 00:56:23;;;;;;;6.90;6.40;;;16.70;75.20;;;;;;5011125;28;20558;-87
2021/09/24 00:58:54;;;;;;;6.40;5.80;;;16.70;75.30;;;;;;4992672;28;20217;-89
2021/09/24 01:01:20;;;;;;;6.38;5.88;;;16.70;75.10;;;;;;5007089;28;20284;-89
2021/09/24 01:03:45;;;;;;;8.07;5.90;;;16.70;75.30;;;;;;5007950;28;20579;-89
2021/09/24 01:06:13;;;;;;;6.80;6.30;;;16.70;75.50;;;;;;5007219;28;20258;-89
2021/09/24 01:08:39;;;;;;;6.50;5.90;;;16.70;75.30;;;;;;5010192;28;20218;-89
2021/09/24 01:11:05;;;;;;;6.25;5.75;;;16.60;74.80;;;;;;5011361;28;20192;-89
2021/09/24 01:13:30;;;;;;;6.95;6.35;;;16.60;74.60;;;;;;5009688;28;20210;-89
2021/09/24 01:15:56;;;;;;;6.50;5.85;;;16.60;74.50;;;;;;5012803;28;20254;-89
2021/09/24 01:18:22;;;;;;;7.03;6.25;;;16.60;74.80;;;;;;5010927;28;20199;-89
2021/09/24 01:20:50;;;;;;;6.80;5.65;;;16.70;74.80;;;;;;5007001;28;20192;-88
2021/09/24 01:23:16;;;;;;;7.03;5.78;;;16.60;74.70;;;;;;5007399;28;20803;-88
2021/09/24 01:25:42;;;;;;;6.90;6.30;;;16.60;74.70;;;;;;5010746;28;20199;-88
2021/09/24 01:28:07;;;;;;;7.50;6.07;;;16.60;74.70;;;;;;5007603;28;20203;-89
2021/09/24 01:30:33;;;;;;;5.95;5.45;;;16.60;74.90;;;;;;5008916;28;20219;-89
2021/09/24 01:32:59;;;;;;;6.33;5.80;;;16.60;74.90;;;;;;5011012;28;20280;-88
2021/09/24 01:35:24;;;;;;;7.90;6.90;;;16.60;74.70;;;;;;5007496;28;20245;-88
2021/09/24 01:37:50;;;;;;;6.23;5.53;;;16.50;74.50;;;;;;5009500;28;20249;-89
2021/09/24 01:40:19;;;;;;;6.37;5.87;;;16.40;74.90;;;;;;4994887;28;20213;-89
2021/09/24 01:42:46;;;;;;;6.60;6.10;;;16.30;75.30;;;;;;5010194;28;20218;-88
2021/09/24 01:45:13;;;;;;;6.55;5.95;;;16.30;75.80;;;;;;5008912;28;20198;-88
2021/09/24 01:47:39;;;;;;;6.30;5.80;;;16.30;75.80;;;;;;5010246;28;20219;-88
2021/09/24 01:50:06;;;;;;;6.13;5.63;;;16.40;75.70;;;;;;5010442;28;20292;-88
2021/09/24 01:52:32;;;;;;;6.10;5.60;;;16.40;76.50;;;;;;5008455;28;20270;-86
2021/09/24 01:54:58;;;;;;;6.30;5.80;;;16.50;75.80;;;;;;5011579;28;20198;-87
2021/09/24 01:57:24;;;;;;;6.43;5.82;;;16.40;75.00;;;;;;5010176;28;20187;-88
2021/09/24 01:59:50;;;;;;;6.50;5.93;;;16.30;76.00;;;;;;5006094;28;20227;-87
2021/09/24 02:02:16;;;;;;;6.70;6.00;;;16.30;76.30;;;;;;5010385;28;20191;-87
2021/09/24 02:04:42;;;;;;;7.03;6.43;;;16.30;76.60;;;;;;5017279;28;20205;-88
2021/09/24 02:07:07;;;;;;;6.05;5.55;;;16.20;76.70;;;;;;5019831;28;20547;-87
2021/09/24 02:09:33;;;;;;;6.88;6.13;;;16.10;77.90;;;;;;5015874;28;20273;-88
2021/09/24 02:11:59;;;;;;;6.60;6.10;;;16.10;77.20;;;;;;4995414;28;20716;-87
2021/09/24 02:14:25;;;;;;;6.67;6.17;;;16.20;77.10;;;;;;5013807;28;20198;-88
2021/09/24 02:16:51;;;;;;;6.13;5.60;;;16.20;77.00;;;;;;4997773;28;20279;-88
2021/09/24 02:19:17;;;;;;;6.17;5.57;;;16.10;77.50;;;;;;5015301;28;20605;-88
2021/09/24 02:21:43;;;;;;;6.87;6.37;;;16.00;77.60;;;;;;5016522;28;20203;-88
2021/09/24 02:24:08;;;;;;;6.87;6.27;;;16.10;78.00;;;;;;5012770;28;20197;-88
2021/09/24 02:26:34;;;;;;;7.20;6.60;;;16.00;77.90;;;;;;5011413;28;20801;-87
2021/09/24 02:29:00;;;;;;;6.27;5.77;;;16.00;78.20;;;;;;5014042;28;20273;-88
2021/09/24 02:31:26;;;;;;;7.90;7.20;;;15.90;78.60;;;;;;5016010;28;20187;-87
2021/09/24 02:33:51;;;;;;;7.57;6.87;;;15.90;78.70;;;;;;5017110;28;20189;-87
2021/09/24 02:36:17;;;;;;;7.77;6.83;;;15.80;78.90;;;;;;5020712;28;20203;-88
2021/09/24 02:38:43;;;;;;;6.97;6.37;;;15.80;79.10;;;;;;5015806;28;20222;-88
2021/09/24 02:41:12;;;;;;;7.03;6.53;;;15.90;79.20;;;;;;5016143;28;20202;-89
2021/09/24 02:43:37;;;;;;;7.73;7.13;;;15.90;78.80;;;;;;5015745;28;20210;-89
2021/09/24 02:46:03;;;;;;;7.07;6.47;;;15.80;79.10;;;;;;5017376;28;20808;-87
2021/09/24 02:48:29;;;;;;;8.00;7.20;;;15.70;79.40;;;;;;5015494;28;20203;-88
2021/09/24 02:50:55;;;;;;;7.47;6.87;;;15.60;80.00;;;;;;5016143;28;20228;-88
2021/09/24 02:53:21;;;;;;;8.20;7.50;;;15.40;80.90;;;;;;5016070;28;20585;-88
2021/09/24 02:55:46;;;;;;;8.07;7.37;;;15.10;82.80;;;;;;5015784;28;20213;-88
2021/09/24 02:58:12;;;;;;;8.60;7.90;;;15.00;83.80;;;;;;5014878;28;20185;-88
2021/09/24 03:00:38;;;;;;;8.27;7.47;;;15.00;83.80;;;;;;5015279;28;20224;-88
2021/09/24 03:03:04;;;;;;;7.17;6.67;;;15.00;83.60;;;;;;5017047;28;20201;-88
2021/09/24 03:05:30;;;;;;;8.07;7.40;;;15.10;83.20;;;;;;5012980;28;20197;-88
2021/09/24 03:07:56;;;;;;;7.03;6.43;;;15.20;82.50;;;;;;5017216;28;20330;-87
2021/09/24 03:10:22;;;;;;;8.00;6.93;;;15.30;82.10;;;;;;5016367;28;20629;-88
2021/09/24 03:12:47;;;;;;;8.57;7.77;;;15.30;81.70;;;;;;5020520;28;20213;-87
2021/09/24 03:15:14;;;;;;;8.90;8.10;;;15.20;81.90;;;;;;5023847;28;20215;-87
2021/09/24 03:17:40;;;;;;;31.07;10.13;;;15.10;82.30;;;;;;5018918;28;20198;-88
2021/09/24 03:20:08;;;;;;;7.83;7.13;;;15.10;82.10;;;;;;5015903;28;20193;-88
2021/09/24 03:22:34;;;;;;;8.73;7.90;;;15.10;82.20;;;;;;5015702;28;20200;-88
2021/09/24 03:24:59;;;;;;;7.63;6.80;;;15.10;82.50;;;;;;5014883;28;20230;-88
2021/09/24 03:27:25;;;;;;;7.70;6.90;;;15.10;81.80;;;;;;5014844;28;20197;-88
2021/09/24 03:29:51;;;;;;;7.80;7.10;;;15.20;80.90;;;;;;5013710;28;20209;-88
2021/09/24 03:32:19;;;;;;;7.70;7.03;;;15.30;80.80;;;;;;5014650;28;20209;-88
2021/09/24 03:34:49;;;;;;;7.13;6.43;;;15.40;80.20;;;;;;5012571;28;20184;-88
2021/09/24 03:37:15;;;;;;;9.93;7.07;;;15.50;80.00;;;;;;5014673;28;20181;-88
2021/09/24 03:39:41;;;;;;;7.53;6.93;;;15.50;79.50;;;;;;5011550;28;20214;-89
2021/09/24 03:42:07;;;;;;;11.13;8.77;;;15.50;79.20;;;;;;5011363;28;20218;-88
2021/09/24 03:44:33;;;;;;;11.60;8.20;;;15.30;80.70;;;;;;5014528;28;20215;-88
2021/09/24 03:46:59;;;;;;;8.77;7.93;;;15.10;82.00;;;;;;5014630;28;20220;-88
2021/09/24 03:49:26;;;;;;;9.33;8.43;;;15.00;82.70;;;;;;5014926;28;20232;-89
2021/09/24 03:51:52;;;;;;;8.97;8.07;;;14.80;83.40;;;;;;5016816;28;20215;-89
2021/09/24 03:54:18;;;;;;;8.03;7.33;;;14.80;83.20;;;;;;5017521;28;20188;-89
2021/09/24 03:56:44;;;;;;;8.63;7.93;;;14.90;83.10;;;;;;5017416;28;20190;-89
2021/09/24 03:59:11;;;;;;;9.07;8.27;;;15.10;82.50;;;;;;5025041;28;20238;-89
2021/09/24 04:01:38;;;;;;;9.13;7.23;;;15.10;81.90;;;;;;5031005;28;20226;-89
2021/09/24 04:04:04;;;;;;;8.20;7.50;;;15.10;81.80;;;;;;5029396;28;20773;-88
2021/09/24 04:06:30;;;;;;;8.83;8.03;;;15.20;81.50;;;;;;5029386;28;20297;-88
2021/09/24 04:08:56;;;;;;;7.90;7.20;;;15.20;81.30;;;;;;5028227;28;20213;-89
2021/09/24 04:11:22;;;;;;;8.57;7.03;;;15.30;81.00;;;;;;5027080;28;20811;-89
2021/09/24 04:13:48;;;;;;;11.93;9.47;;;15.30;81.00;;;;;;5025275;28;20188;-88
2021/09/24 04:16:14;;;;;;;9.57;8.67;;;14.90;82.60;;;;;;5018294;28;20216;-87
2021/09/24 04:18:41;;;;;;;10.40;9.40;;;14.60;84.30;;;;;;5017854;28;20771;-88
2021/09/24 04:21:06;;;;;;;10.43;9.43;;;14.40;85.70;;;;;;5017444;28;20201;-89
2021/09/24 04:23:33;;;;;;;10.47;9.07;;;14.10;87.40;;;;;;5020605;28;20199;-90
2021/09/24 04:25:58;;;;;;;9.93;8.93;;;14.00;87.80;;;;;;5043099;28;20202;-89
2021/09/24 04:28:25;;;;;;;10.50;9.50;;;13.90;88.30;;;;;;5031127;28;20193;-89
2021/09/24 04:30:50;;;;;;;9.87;8.90;;;13.90;88.80;;;;;;5027819;28;20208;-89
2021/09/24 04:33:16;;;;;;;8.87;7.97;;;13.80;88.80;;;;;;5020797;28;20208;-89
2021/09/24 04:35:42;;;;;;;9.07;8.27;;;13.80;88.70;;;;;;5016437;28;20713;-90
2021/09/24 04:38:08;;;;;;;9.03;7.73;;;14.00;87.20;;;;;;5014858;28;20658;-90
2021/09/24 04:40:34;;;;;;;9.03;8.13;;;14.20;86.30;;;;;;5017541;28;20209;-90
2021/09/24 04:43:00;;;;;;;8.87;8.10;;;14.20;85.70;;;;;;5016265;28;20312;-89
2021/09/24 04:45:26;;;;;;;9.40;8.60;;;14.40;84.80;;;;;;5014092;28;20612;-89
2021/09/24 04:47:52;;;;;;;8.73;7.83;;;14.50;85.20;;;;;;5014263;28;20221;-89
2021/09/24 04:50:18;;;;;;;8.67;7.83;;;14.70;83.90;;;;;;5018475;28;20229;-91
2021/09/24 04:52:43;;;;;;;8.43;7.43;;;14.60;83.50;;;;;;5002836;28;20225;-90
2021/09/24 04:55:10;;;;;;;8.40;7.63;;;14.80;82.70;;;;;;5018258;28;20216;-90
2021/09/24 04:57:36;;;;;;;8.27;7.53;;;14.80;82.80;;;;;;5018880;28;20194;-89
2021/09/24 05:00:04;;;;;;;9.43;8.50;;;14.70;83.00;;;;;;5017268;28;20222;-88
2021/09/24 05:02:30;;;;;;;8.73;7.83;;;14.80;82.80;;;;;;5014914;28;20662;-90
2021/09/24 05:04:55;;;;;;;9.30;8.50;;;14.70;83.30;;;;;;5018584;28;20292;-88
2021/09/24 05:07:21;;;;;;;10.40;8.93;;;14.60;83.50;;;;;;4999017;28;20198;-89
2021/09/24 05:09:47;;;;;;;10.33;9.27;;;14.50;84.60;;;;;;5020329;28;20218;-89
2021/09/24 05:12:13;;;;;;;9.50;8.53;;;14.20;86.40;;;;;;4996119;28;20584;-89
2021/09/24 05:14:38;;;;;;;9.67;8.77;;;14.00;87.60;;;;;;5017448;28;20197;-89
2021/09/24 05:17:05;;;;;;;11.33;9.80;;;13.90;88.50;;;;;;5013566;28;20320;-88
2021/09/24 05:19:30;;;;;;;12.53;9.83;;;13.70;89.80;;;;;;4998646;28;20221;-89
2021/09/24 05:21:56;;;;;;;11.67;9.33;;;13.60;90.50;;;;;;5013857;28;20198;-89
2021/09/24 05:24:22;;;;;;;10.10;9.20;;;13.50;90.80;;;;;;5015988;28;20208;-89
2021/09/24 05:26:48;;;;;;;10.43;9.40;;;13.40;91.00;;;;;;5012941;28;20205;-89
2021/09/24 05:29:13;;;;;;;10.33;9.33;;;13.50;90.90;;;;;;5012897;28;20240;-89
2021/09/24 05:31:39;;;;;;;10.50;9.43;;;13.50;91.00;;;;;;5015640;28;20244;-89
2021/09/24 05:34:05;;;;;;;11.83;10.03;;;13.60;90.00;;;;;;4984440;28;20195;-89
2021/09/24 05:36:31;;;;;;;11.57;10.13;;;13.70;89.30;;;;;;5013272;28;20225;-89
2021/09/24 05:38:57;;;;;;;13.67;9.23;;;13.80;88.50;;;;;;5016349;28;20217;-88
2021/09/24 05:41:23;;;;;;;9.57;8.60;;;13.90;88.50;;;;;;5009671;28;20194;-89
2021/09/24 05:43:50;;;;;;;10.07;9.17;;;13.90;88.70;;;;;;5015168;28;20207;-89
2021/09/24 05:46:17;;;;;;;10.97;9.83;;;13.90;88.60;;;;;;5012682;28;20192;-87
2021/09/24 05:48:43;;;;;;;10.53;9.60;;;13.60;89.80;;;;;;5016367;28;20212;-89
2021/09/24 05:51:08;;;;;;;11.20;10.10;;;13.60;90.40;;;;;;5016701;28;20504;-89
2021/09/24 05:53:34;;;;;;;11.50;10.27;;;13.60;90.60;;;;;;5024900;28;20216;-89
2021/09/24 05:56:00;;;;;;;12.23;11.03;;;13.50;91.40;;;;;;5002894;28;20214;-88
2021/09/24 05:58:26;;;;;;;11.97;10.70;;;13.50;91.50;;;;;;5022213;28;20215;-89
2021/09/24 06:00:52;;;;;;;11.77;10.03;;;13.40;92.40;;;;;;5017049;28;20231;-89
2021/09/24 06:03:17;;;;;;;11.87;10.73;;;13.30;92.90;;;;;;5019253;28;20724;-89
2021/09/24 06:05:43;;;;;;;12.53;11.23;;;13.30;93.10;;;;;;5022484;28;20273;-90
2021/09/24 06:08:09;;;;;;;12.07;10.87;;;13.30;93.40;;;;;;5023845;28;20205;-89
2021/09/24 06:10:38;;;;;;;11.70;10.60;;;13.30;93.70;;;;;;5026946;28;20756;-89
2021/09/24 06:13:05;;;;;;;12.10;11.00;;;13.40;93.00;;;;;;5026012;28;20217;-90
2021/09/24 06:15:31;;;;;;;11.27;10.13;;;13.30;93.20;;;;;;5026538;28;20225;-89
2021/09/24 06:17:56;;;;;;;12.60;11.47;;;13.40;93.40;;;;;;5021060;28;20190;-89
2021/09/24 06:20:22;;;;;;;12.23;11.10;;;13.30;93.60;;;;;;5015028;28;20282;-90
2021/09/24 06:22:49;;;;;;;13.33;11.63;;;13.40;93.50;;;;;;5014544;28;20213;-89
2021/09/24 06:25:16;;;;;;;11.93;10.90;;;13.40;94.70;;;;;;5014127;28;20283;-89
2021/09/24 06:27:42;;;;;;;11.97;10.77;;;13.30;94.10;;;;;;5014804;28;20280;-88
2021/09/24 06:30:11;;;;;;;11.47;10.47;;;13.30;94.80;;;;;;5016977;28;20217;-89
2021/09/24 06:32:37;;;;;;;11.97;10.73;;;13.20;95.00;;;;;;4968471;28;20224;-89
2021/09/24 06:35:04;;;;;;;12.07;10.90;;;13.20;95.30;;;;;;5016212;28;20181;-89
2021/09/24 06:37:30;;;;;;;11.93;10.93;;;13.30;95.20;;;;;;5010628;28;20194;-89
2021/09/24 06:39:56;;;;;;;12.87;11.57;;;13.40;94.50;;;;;;5013239;28;20322;-89
2021/09/24 06:42:22;;;;;;;12.27;11.07;;;13.40;94.50;;;;;;5016999;28;20214;-89
2021/09/24 06:44:47;;;;;;;13.00;11.80;;;13.50;94.00;;;;;;5013859;28;20190;-88
2021/09/24 06:47:15;;;;;;;12.13;10.93;;;13.40;94.50;;;;;;5014073;28;20261;-89
2021/09/24 06:49:41;;;;;;;12.43;11.30;;;13.50;94.30;;;;;;5015207;28;20231;-89
2021/09/24 06:52:07;;;;;;;12.53;10.27;;;13.50;94.90;;;;;;5015370;28;20745;-89
2021/09/24 06:54:34;;;;;;;12.40;11.23;;;13.70;93.80;;;;;;5013850;28;20193;-89
2021/09/24 06:57:00;;;;;;;12.57;11.33;;;13.60;93.90;;;;;;5010760;28;20209;-89
2021/09/24 06:59:26;;;;;;;13.70;12.33;;;13.60;94.20;;;;;;5010424;28;20217;-89
2021/09/24 07:01:51;;;;;;;14.60;11.63;;;13.60;94.40;;;;;;5000416;28;20215;-89
2021/09/24 07:04:17;;;;;;;12.53;11.37;;;13.80;93.80;;;;;;5014920;28;20203;-89
2021/09/24 07:06:43;;;;;;;12.43;11.23;;;13.90;93.50;;;;;;5011260;28;21438;-89
2021/09/24 07:09:09;;;;;;;12.23;11.03;;;13.90;94.40;;;;;;5013304;28;20228;-87
2021/09/24 07:11:35;;;;;;;13.30;11.97;;;13.80;94.50;;;;;;4990955;28;20197;-89
2021/09/24 07:14:08;;;;;;;13.93;12.63;;;14.10;93.20;;;;;;5011750;28;20201;-89
2021/09/24 07:16:35;;;;;;;14.40;12.83;;;14.00;93.80;;;;;;5019673;28;20274;-89
2021/09/24 07:19:00;;;;;;;14.23;12.90;;;14.00;93.70;;;;;;5018261;28;20217;-89
2021/09/24 07:21:26;;;;;;;14.00;12.60;;;14.00;94.70;;;;;;5012071;28;20199;-88
2021/09/24 07:23:52;;;;;;;20.90;13.50;;;14.30;93.90;;;;;;5018738;28;20557;-88
2021/09/24 07:26:17;;;;;;;15.23;12.37;;;14.30;93.00;;;;;;5020940;28;20658;-89
2021/09/24 07:28:43;;;;;;;13.23;11.93;;;14.50;92.20;;;;;;5017716;28;20209;-89
2021/09/24 07:31:11;;;;;;;13.03;11.83;;;14.60;91.90;;;;;;5023608;28;20692;-88
2021/09/24 07:33:37;;;;;;;14.50;12.50;;;14.50;92.50;;;;;;5014239;28;20215;-89
2021/09/24 07:36:04;;;;;;;14.13;12.80;;;14.50;92.70;;;;;;5017750;28;20664;-89
2021/09/24 07:38:29;;;;;;;16.97;12.63;;;14.40;93.20;;;;;;5012870;28;20210;-89
2021/09/24 07:40:55;;;;;;;14.47;13.13;;;14.50;92.80;;;;;;5018903;28;20187;-89
2021/09/24 07:43:21;;;;;;;13.57;12.13;;;14.70;92.70;;;;;;5013756;28;20218;-89
2021/09/24 07:45:47;;;;;;;14.43;12.97;;;14.80;91.30;;;;;;5023411;28;20173;-89
2021/09/24 07:48:13;;;;;;;14.20;12.50;;;15.00;90.40;;;;;;5044822;28;20189;-89
2021/09/24 07:50:39;;;;;;;14.10;12.83;;;15.10;91.00;;;;;;5032676;28;20213;-89
2021/09/24 07:53:05;;;;;;;13.50;11.57;;;15.10;90.50;;;;;;5008032;28;20461;-89
2021/09/24 07:55:31;;;;;;;12.80;11.60;;;15.20;89.80;;;;;;5020365;28;20185;-89
2021/09/24 07:57:57;;;;;;;13.07;11.87;;;15.30;89.80;;;;;;5006506;28;20200;-89
2021/09/24 08:00:25;;;;;;;12.63;11.50;;;15.30;91.30;;;;;;5014421;28;20241;-89
2021/09/24 08:02:51;;;;;;;13.57;11.77;;;15.30;91.00;;;;;;4995991;28;20196;-89
2021/09/24 08:05:17;;;;;;;12.50;11.20;;;15.20;90.50;;;;;;5032033;28;20272;-89
2021/09/24 08:07:43;;;;;;;12.23;11.13;;;15.40;91.00;;;;;;5010212;28;20212;-89
2021/09/24 08:10:09;;;;;;;13.17;11.90;;;15.50;89.80;;;;;;5014443;28;20209;-89
2021/09/24 08:12:35;;;;;;;12.00;11.00;;;15.60;90.50;;;;;;5011065;28;20312;-89
2021/09/24 08:15:01;;;;;;;12.57;11.27;;;15.70;89.30;;;;;;4996292;28;20229;-89
2021/09/24 08:17:27;;;;;;;11.17;10.17;;;15.70;88.40;;;;;;5014741;28;20197;-88
2021/09/24 08:19:52;;;;;;;11.07;10.07;;;15.80;87.80;;;;;;5017603;28;20272;-89
2021/09/24 08:22:18;;;;;;;11.57;10.67;;;15.90;87.00;;;;;;5013514;28;20850;-89
2021/09/24 08:24:44;;;;;;;11.30;10.40;;;15.90;86.60;;;;;;5017734;28;20193;-88
2021/09/24 08:27:11;;;;;;;12.60;10.40;;;16.00;87.60;;;;;;5010902;28;20289;-89
2021/09/24 08:29:39;;;;;;;11.30;10.33;;;16.20;86.10;;;;;;5011287;28;20218;-89
2021/09/24 08:32:05;;;;;;;11.50;10.30;;;16.30;86.20;;;;;;4995693;28;20238;-89
2021/09/24 08:34:31;;;;;;;11.07;10.07;;;16.50;84.80;;;;;;4997358;28;20687;-88
2021/09/24 08:36:57;;;;;;;12.10;10.33;;;16.50;84.60;;;;;;5012416;28;20189;-89
2021/09/24 08:39:23;;;;;;;11.43;10.27;;;16.80;83.80;;;;;;5012025;28;20643;-88
2021/09/24 08:41:48;;;;;;;10.80;9.67;;;16.90;83.60;;;;;;5008917;28;20648;-88
2021/09/24 08:44:15;;;;;;;10.80;9.47;;;16.90;83.50;;;;;;5009936;28;20196;-89
2021/09/24 08:46:41;;;;;;;10.00;9.10;;;17.00;84.40;;;;;;5014952;28;20209;-89
2021/09/24 08:49:08;;;;;;;10.70;9.60;;;17.00;83.50;;;;;;5018169;28;20220;-88
2021/09/24 08:51:34;;;;;;;11.17;10.13;;;17.10;83.70;;;;;;5010615;28;20659;-88
2021/09/24 08:54:02;;;;;;;10.63;9.50;;;17.30;81.70;;;;;;5009943;28;20223;-88
2021/09/24 08:56:28;;;;;;;9.83;8.93;;;17.50;79.90;;;;;;5015127;28;20700;-89
2021/09/24 08:58:54;;;;;;;9.50;8.27;;;17.80;78.60;;;;;;5007894;28;20249;-88
2021/09/24 09:01:19;;;;;;;9.83;8.83;;;17.70;79.10;;;;;;5018108;28;20271;-87
2021/09/24 09:03:47;;;;;;;10.50;9.60;;;17.80;77.50;;;;;;5010378;28;20212;-88
2021/09/24 09:06:17;;;;;;;10.07;9.07;;;17.70;77.40;;;;;;5013576;28;20233;-87
2021/09/24 09:08:44;;;;;;;10.70;8.70;;;17.90;77.60;;;;;;5011032;28;20225;-87
2021/09/24 09:11:18;;;;;;;9.90;9.00;;;18.00;76.50;;;;;;4993645;28;20212;-87
2021/09/24 09:13:53;;;;;;;9.80;8.87;;;18.00;77.50;;;;;;5010211;28;20275;-87
2021/09/24 09:16:22;;;;;;;10.77;9.77;;;18.00;76.60;;;;;;5010015;28;20260;-87
2021/09/24 09:18:49;;;;;;;9.73;8.83;;;18.10;78.00;;;;;;5009583;28;20701;-86
2021/09/24 09:21:21;;;;;;;11.77;8.83;;;18.30;75.10;;;;;;5008767;28;20224;-87
2021/09/24 09:23:52;;;;;;;10.37;9.37;;;18.30;76.70;;;;;;5011542;28;20197;-87
2021/09/24 09:26:18;;;;;;;10.97;9.43;;;18.40;75.60;;;;;;5012507;28;20177;-87
2021/09/24 09:28:52;;;;;;;10.00;9.10;;;18.40;76.40;;;;;;5014270;28;20573;-88
2021/09/24 09:31:27;;;;;;;10.15;9.23;;;18.60;75.10;;;;;;5007456;28;20193;-88
2021/09/24 09:33:55;;;;;;;10.30;9.47;;;18.70;76.40;;;;;;5010855;28;20210;-88
2021/09/24 09:36:23;;;;;;;10.10;8.90;;;18.90;74.80;;;;;;4994694;28;20403;-89
2021/09/24 09:38:49;;;;;;;10.07;9.15;;;19.00;74.30;;;;;;5009549;28;20235;-86
2021/09/24 09:41:16;;;;;;;10.55;9.65;;;19.20;73.00;;;;;;5008904;28;20185;-88
2021/09/24 09:43:43;;;;;;;9.43;8.50;;;19.30;73.50;;;;;;5015484;28;20215;-87
2021/09/24 09:46:22;;;;;;;10.07;9.20;;;19.40;72.40;;;;;;4993926;28;20259;-89
2021/09/24 09:49:09;;;;;;;10.45;9.55;;;19.60;70.30;;;;;;5008713;28;20222;-90
2021/09/24 09:51:37;;;;;;;9.75;8.85;;;19.50;72.00;;;;;;5009029;28;20776;-89
2021/09/24 09:54:04;;;;;;;9.80;8.98;;;19.80;70.60;;;;;;5010438;28;20195;-87
2021/09/24 09:56:41;;;;;;;9.50;7.72;;;19.90;69.80;;;;;;5009334;28;20201;-89
2021/09/24 09:59:29;;;;;;;9.23;7.93;;;20.20;67.60;;;;;;5010703;28;20211;-89
2021/09/24 10:02:18;;;;;;;9.63;8.65;;;20.20;67.50;;;;;;5016505;28;20193;-87
2021/09/24 10:04:46;;;;;;;8.05;7.35;;;20.10;67.50;;;;;;5018080;28;20210;-89
2021/09/24 10:07:17;;;;;;;8.65;7.85;;;20.30;66.20;;;;;;5010182;28;20193;-87
2021/09/24 10:09:45;;;;;;;9.07;8.10;;;20.30;68.20;;;;;;5009581;28;20299;-89
2021/09/24 10:12:19;;;;;;;7.88;7.28;;;20.70;65.40;;;;;;5009322;28;20217;-87
2021/09/24 10:14:46;;;;;;;8.88;8.02;;;20.70;63.60;;;;;;5006452;28;20275;-87
2021/09/24 10:17:12;;;;;;;8.52;7.80;;;20.80;66.30;;;;;;5011556;28;20189;-87
2021/09/24 10:19:38;;;;;;;11.23;8.50;;;21.00;64.70;;;;;;4999103;28;20253;-87
2021/09/24 10:22:04;;;;;;;9.20;8.23;;;21.20;65.30;;;;;;5015495;28;20287;-88
2021/09/24 10:24:30;;;;;;;9.68;7.68;;;21.40;63.70;;;;;;5011081;28;20222;-87
2021/09/24 10:27:02;;;;;;;8.60;8.00;;;21.60;60.80;;;;;;4996902;28;20563;-89
2021/09/24 10:29:30;;;;;;;8.48;7.78;;;21.80;60.70;;;;;;5014615;28;20613;-88
2021/09/24 10:32:13;;;;;;;8.30;7.38;;;21.80;63.20;;;;;;5004820;28;20219;-89
2021/09/24 10:35:05;;;;;;;7.68;6.93;;;21.70;59.00;;;;;;5019913;28;20203;-87
2021/09/24 10:37:34;;;;;;;8.35;7.57;;;21.90;57.50;;;;;;5007834;28;20191;-89
2021/09/24 10:40:02;;;;;;;6.88;6.28;;;22.10;60.50;;;;;;5014560;28;20214;-90
2021/09/24 10:42:33;;;;;;;8.35;7.30;;;22.30;56.70;;;;;;4996381;28;20192;-90
2021/09/24 10:45:07;;;;;;;8.50;6.72;;;22.20;57.30;;;;;;5009636;28;21050;-90
2021/09/24 10:47:51;;;;;;;7.40;6.80;;;22.10;58.10;;;;;;5010207;28;20188;-90
2021/09/24 10:50:29;;;;;;;8.00;7.35;;;22.30;57.70;;;;;;5012166;28;20205;-90
2021/09/24 10:53:26;;;;;;;7.68;6.97;;;22.60;57.90;;;;;;5012417;28;20271;-87
2021/09/24 10:55:54;;;;;;;7.38;6.55;;;22.40;56.70;;;;;;5011331;28;20205;-90
2021/09/24 10:58:26;;;;;;;7.15;6.60;;;22.50;56.20;;;;;;5015723;28;20196;-90
2021/09/24 11:00:56;;;;;;;8.65;6.95;;;22.80;56.70;;;;;;5018078;28;20234;-91
2021/09/24 11:03:25;;;;;;;7.85;6.60;;;23.00;55.70;;;;;;5015099;28;20189;-90
2021/09/24 11:05:54;;;;;;;7.20;6.43;;;23.20;54.40;;;;;;5014703;28;20206;-91
2021/09/24 11:08:32;;;;;;;7.95;7.25;;;23.50;54.60;;;;;;5022461;28;20212;-90
2021/09/24 11:11:12;;;;;;;8.05;6.18;;;23.40;53.10;;;;;;5015194;28;20253;-90
2021/09/24 11:13:41;;;;;;;9.38;6.60;;;23.50;53.40;;;;;;5014965;28;20228;-90
2021/09/24 11:16:12;;;;;;;7.60;6.90;;;23.20;53.10;;;;;;5008228;28;20208;-90
2021/09/24 11:18:48;;;;;;;10.02;7.00;;;23.20;56.90;;;;;;5024674;28;20205;-90
2021/09/24 11:21:44;;;;;;;7.63;7.03;;;23.50;52.60;;;;;;5023407;28;20231;-90
2021/09/24 11:24:32;;;;;;;7.30;6.70;;;23.50;50.70;;;;;;5021201;28;20215;-90
2021/09/24 11:27:01;;;;;;;8.63;6.75;;;23.70;51.90;;;;;;5015133;28;20189;-90
2021/09/24 11:29:29;;;;;;;7.22;6.63;;;24.00;50.90;;;;;;5010584;28;20251;-90
2021/09/24 11:32:04;;;;;;;8.38;7.47;;;23.50;51.70;;;;;;5009455;28;20228;-91
2021/09/24 11:34:46;;;;;;;8.45;7.10;;;23.50;52.80;;;;;;5013630;28;20545;-91
2021/09/24 11:37:21;;;;;;;8.73;7.95;;;23.60;52.40;;;;;;5011944;28;20235;-91
2021/09/24 11:39:58;;;;;;;9.02;7.43;;;23.70;51.90;;;;;;5002258;28;20212;-91
2021/09/24 11:42:25;;;;;;;26.85;8.73;;;24.10;50.40;;;;;;5030518;28;20195;-92
2021/09/24 11:44:53;;;;;;;7.97;7.30;;;23.90;51.00;;;;;;5025832;28;20184;-91
2021/09/24 11:47:25;;;;;;;8.30;7.50;;;24.10;50.90;;;;;;5029106;28;20202;-90
2021/09/24 11:50:03;;;;;;;7.90;6.97;;;24.00;52.30;;;;;;5014802;28;20213;-90
2021/09/24 11:52:50;;;;;;;8.35;7.65;;;23.90;52.20;;;;;;5007875;28;20832;-91
2021/09/24 11:55:23;;;;;;;8.68;7.82;;;23.60;53.20;;;;;;5015779;28;20219;-90
2021/09/24 11:58:11;;;;;;;8.38;7.55;;;24.30;51.00;;;;;;5010383;28;20285;-90
2021/09/24 12:00:48;;;;;;;8.25;7.47;;;24.20;52.40;;;;;;5008808;28;20287;-90
2021/09/24 12:03:21;;;;;;;8.25;7.45;;;24.20;51.50;;;;;;5008953;28;20208;-89
2021/09/24 12:06:02;;;;;;;7.10;6.50;;;24.50;49.90;;;;;;5010591;28;20193;-89
2021/09/24 12:08:30;;;;;;;8.15;7.32;;;25.00;49.60;;;;;;5008479;28;20208;-88
2021/09/24 12:11:05;;;;;;;7.93;7.22;;;24.90;49.80;;;;;;5010323;28;20186;-89
2021/09/24 12:13:39;;;;;;;7.95;7.03;;;24.80;48.70;;;;;;5008895;28;20271;-89
2021/09/24 12:16:06;;;;;;;7.65;7.05;;;24.70;50.00;;;;;;5007423;28;20192;-89
2021/09/24 12:18:58;;;;;;;7.50;6.80;;;24.90;50.10;;;;;;5012007;28;20751;-88
2021/09/24 12:21:46;;;;;;;7.68;6.88;;;24.50;49.30;;;;;;5011371;28;20181;-89
2021/09/24 12:24:22;;;;;;;7.78;7.13;;;24.70;48.90;;;;;;5011982;28;20216;-89
2021/09/24 12:27:12;;;;;;;9.50;7.28;;;24.70;49.30;;;;;;5020377;28;20273;-88
2021/09/24 12:29:39;;;;;;;8.05;7.28;;;25.00;49.00;;;;;;5016955;28;20292;-87
2021/09/24 12:32:06;;;;;;;7.40;6.68;;;25.20;48.10;;;;;;4973378;28;20221;-88
2021/09/24 12:34:42;;;;;;;8.30;6.47;;;25.30;46.80;;;;;;5009679;28;20236;-88
2021/09/24 12:37:09;;;;;;;7.97;7.18;;;25.50;45.80;;;;;;5014062;28;20184;-87
2021/09/24 12:39:37;;;;;;;7.30;6.60;;;25.30;46.50;;;;;;5011953;28;20209;-88
2021/09/24 12:42:06;;;;;;;7.13;6.43;;;25.20;46.90;;;;;;5012028;28;20188;-88
2021/09/24 12:44:33;;;;;;;7.18;6.45;;;25.50;45.50;;;;;;5014014;28;20193;-88